createdAt,value
2017-07-21T00:00:38.760Z,22.66
2017-07-21T00:03:07.236Z,22.65
2017-07-21T00:05:35.101Z,22.53
2017-07-21T00:08:02.891Z,22.48
2017-07-21T00:10:31.312Z,22.49
2017-07-21T00:12:59.118Z,22.57
2017-07-21T00:15:43.017Z,22.47
2017-07-21T00:18:12.168Z,22.43
2017-07-21T00:20:40.042Z,22.45
2017-07-21T00:23:07.752Z,22.36
2017-07-21T00:25:35.986Z,22.40
2017-07-21T00:28:03.709Z,22.37
2017-07-21T00:30:33.059Z,22.27
2017-07-21T00:33:01.110Z,22.08
2017-07-21T00:35:28.764Z,22.03
2017-07-21T00:37:56.506Z,21.95
2017-07-21T00:40:24.223Z,21.97
2017-07-21T00:42:51.868Z,21.92
2017-07-21T00:45:20.501Z,21.95
2017-07-21T00:47:48.901Z,21.71
2017-07-21T00:50:16.572Z,21.23
2017-07-21T00:52:44.293Z,21.09
2017-07-21T00:55:12.032Z,21.02
2017-07-21T00:57:39.782Z,20.90
2017-07-21T01:00:07.934Z,20.59
2017-07-21T01:02:35.624Z,20.44
2017-07-21T01:07:48.961Z,20.13
2017-07-21T01:10:16.708Z,20.23
2017-07-21T01:12:44.387Z,20.19
2017-07-21T01:15:12.046Z,20.22
2017-07-21T01:17:39.704Z,20.45
2017-07-21T01:20:07.352Z,20.63
2017-07-21T01:22:34.997Z,20.74
2017-07-21T01:25:02.707Z,20.77
2017-07-21T01:27:30.412Z,20.73
2017-07-21T01:29:58.100Z,20.60
2017-07-21T01:32:26.473Z,20.58
2017-07-21T01:34:54.131Z,20.42
2017-07-21T01:37:21.841Z,20.53
2017-07-21T01:39:49.658Z,20.63
2017-07-21T01:42:17.413Z,20.56
2017-07-21T01:44:46.229Z,20.72
2017-07-21T01:47:13.902Z,20.83
2017-07-21T01:49:41.617Z,20.75
2017-07-21T01:52:09.315Z,20.72
2017-07-21T01:54:37.133Z,20.81
2017-07-21T01:57:05.017Z,20.86
2017-07-21T01:59:32.795Z,20.85
2017-07-21T02:02:01.295Z,20.85
2017-07-21T02:04:29.008Z,20.67
2017-07-21T02:06:57.919Z,20.77
2017-07-21T02:09:25.690Z,20.91
2017-07-21T02:11:54.381Z,20.94
2017-07-21T02:14:22.189Z,21.02
2017-07-21T02:16:50.353Z,21.05
2017-07-21T02:19:18.018Z,21.02
2017-07-21T02:21:45.758Z,20.99
2017-07-21T02:24:13.538Z,21.05
2017-07-21T02:26:41.282Z,21.12
2017-07-21T02:29:08.947Z,21.11
2017-07-21T02:31:36.613Z,21.07
2017-07-21T02:34:04.304Z,21.09
2017-07-21T02:36:31.990Z,21.19
2017-07-21T02:38:59.773Z,21.14
2017-07-21T02:41:28.157Z,21.10
2017-07-21T02:43:55.778Z,21.11
2017-07-21T02:46:23.460Z,21.14
2017-07-21T02:48:51.159Z,21.05
2017-07-21T02:51:18.807Z,21.01
2017-07-21T02:53:46.452Z,20.92
2017-07-21T02:56:14.157Z,20.96
2017-07-21T02:58:41.862Z,20.92
2017-07-21T03:01:09.588Z,20.84
2017-07-21T03:03:37.295Z,20.85
2017-07-21T03:06:04.982Z,20.85
2017-07-21T03:08:32.711Z,20.87
2017-07-21T03:11:00.776Z,20.93
2017-07-21T03:13:28.476Z,21.00
2017-07-21T03:15:56.858Z,20.76
2017-07-21T03:18:24.519Z,20.82
2017-07-21T03:20:52.250Z,20.83
2017-07-21T03:23:22.899Z,20.83
2017-07-21T03:25:50.618Z,20.96
2017-07-21T03:28:18.360Z,20.93
2017-07-21T03:30:47.108Z,20.93
2017-07-21T03:33:14.905Z,20.89
2017-07-21T03:35:42.619Z,20.90
2017-07-21T03:38:10.393Z,20.90
2017-07-21T03:40:38.065Z,20.93
2017-07-21T03:43:05.866Z,20.88
2017-07-21T03:45:34.146Z,20.96
2017-07-21T03:48:01.801Z,20.89
2017-07-21T03:50:29.444Z,20.87
2017-07-21T03:52:57.625Z,20.88
2017-07-21T03:55:25.309Z,20.85
2017-07-21T03:57:52.952Z,20.91
2017-07-21T04:00:20.957Z,20.98
2017-07-21T04:02:48.698Z,21.11
2017-07-21T04:05:16.402Z,21.11
2017-07-21T04:07:44.130Z,21.20
2017-07-21T04:10:12.883Z,21.12
2017-07-21T04:12:42.353Z,21.14
2017-07-21T04:15:10.142Z,21.25
2017-07-21T04:17:37.827Z,21.24
2017-07-21T04:20:05.475Z,21.30
2017-07-21T04:22:33.175Z,21.40
2017-07-21T04:25:02.001Z,21.50
2017-07-21T04:27:30.464Z,21.92
2017-07-21T04:29:59.113Z,22.77
2017-07-21T04:32:30.482Z,23.11
2017-07-21T04:34:59.646Z,23.48
2017-07-21T04:37:27.462Z,23.68
2017-07-21T04:39:55.188Z,23.80
2017-07-21T04:42:22.900Z,24.14
2017-07-21T04:44:50.670Z,24.12
2017-07-21T04:47:19.136Z,24.24
2017-07-21T04:49:46.893Z,24.42
2017-07-21T04:52:14.602Z,24.42
2017-07-21T04:54:42.371Z,24.29
2017-07-21T04:57:10.165Z,23.77
2017-07-21T04:59:37.784Z,23.11
2017-07-21T05:02:05.433Z,22.74
2017-07-21T05:04:33.136Z,22.65
2017-07-21T05:07:01.525Z,22.46
2017-07-21T05:09:30.127Z,22.43
2017-07-21T05:11:58.570Z,22.41
2017-07-21T05:14:26.241Z,22.46
2017-07-21T05:16:53.894Z,22.48
2017-07-21T05:19:22.241Z,22.58
2017-07-21T05:21:49.854Z,22.40
2017-07-21T05:24:17.484Z,22.49
2017-07-21T05:26:45.075Z,22.52
2017-07-21T05:29:12.686Z,22.49
2017-07-21T05:31:40.344Z,22.76
2017-07-21T05:34:09.792Z,22.86
2017-07-21T05:36:38.973Z,23.22
2017-07-21T05:39:08.718Z,23.24
2017-07-21T05:41:36.444Z,23.19
2017-07-21T05:44:05.053Z,23.63
2017-07-21T05:46:32.673Z,23.88
2017-07-21T05:49:02.343Z,24.04
2017-07-21T05:51:30.132Z,24.44
2017-07-21T05:54:00.602Z,24.57
2017-07-21T05:56:29.289Z,24.81
2017-07-21T05:58:57.570Z,24.92
2017-07-21T06:01:26.126Z,24.95
2017-07-21T06:03:55.663Z,25.05
2017-07-21T06:06:23.279Z,24.83
2017-07-21T06:08:50.938Z,25.21
2017-07-21T06:11:18.553Z,25.55
2017-07-21T06:13:47.365Z,25.84
2017-07-21T06:16:16.259Z,25.59
2017-07-21T06:18:44.159Z,25.40
2017-07-21T06:21:11.796Z,25.78
2017-07-21T06:23:39.472Z,25.81
2017-07-21T06:26:07.034Z,26.06
2017-07-21T06:28:35.290Z,26.01
2017-07-21T06:31:04.310Z,25.68
2017-07-21T06:33:31.895Z,25.54
2017-07-21T06:36:01.268Z,25.52
2017-07-21T06:38:29.840Z,25.43
2017-07-21T06:40:58.102Z,25.88
2017-07-21T06:43:25.726Z,26.16
2017-07-21T06:45:53.481Z,26.35
2017-07-21T06:48:21.053Z,26.03
2017-07-21T06:50:50.338Z,26.21
2017-07-21T06:53:19.969Z,26.86
2017-07-21T06:55:47.897Z,27.21
2017-07-21T06:58:16.403Z,27.04
2017-07-21T07:00:44.127Z,26.94
2017-07-21T07:03:11.792Z,26.62
2017-07-21T07:05:39.362Z,26.71
2017-07-21T07:08:07.778Z,27.01
2017-07-21T07:10:35.555Z,27.00
2017-07-21T07:13:03.370Z,27.20
2017-07-21T07:15:31.840Z,27.34
2017-07-21T07:18:00.512Z,27.40
2017-07-21T07:20:28.615Z,27.74
2017-07-21T07:22:58.422Z,27.75
2017-07-21T07:25:26.555Z,27.43
2017-07-21T07:27:56.120Z,27.56
2017-07-21T07:30:24.113Z,27.78
2017-07-21T07:32:51.788Z,28.42
2017-07-21T07:35:19.377Z,28.59
2017-07-21T07:37:46.982Z,29.11
2017-07-21T07:40:14.580Z,29.35
2017-07-21T07:42:42.455Z,29.30
2017-07-21T07:45:11.122Z,29.15
2017-07-21T07:47:39.525Z,29.62
2017-07-21T07:50:08.070Z,29.85
2017-07-21T07:52:35.657Z,29.55
2017-07-21T07:55:03.332Z,29.44
2017-07-21T07:57:31.581Z,29.56
2017-07-21T08:00:00.146Z,30.08
2017-07-21T08:02:28.331Z,30.23
2017-07-21T08:04:57.213Z,30.51
2017-07-21T08:07:25.038Z,30.31
2017-07-21T08:09:52.633Z,30.58
2017-07-21T08:12:20.420Z,30.94
2017-07-21T08:14:49.179Z,30.90
2017-07-21T08:17:16.819Z,30.17
2017-07-21T08:19:44.366Z,30.32
2017-07-21T08:22:11.983Z,30.96
2017-07-21T08:24:39.659Z,31.29
2017-07-21T08:27:07.307Z,31.21
2017-07-21T08:29:34.959Z,31.26
2017-07-21T08:32:02.635Z,31.04
2017-07-21T08:34:30.235Z,30.83
2017-07-21T08:36:57.798Z,31.06
2017-07-21T08:39:25.393Z,30.95
2017-07-21T08:41:53.015Z,30.60
2017-07-21T08:44:20.579Z,30.92
2017-07-21T08:46:49.069Z,31.16
2017-07-21T08:49:17.498Z,31.47
2017-07-21T08:51:46.003Z,31.27
2017-07-21T08:54:13.650Z,31.42
2017-07-21T08:56:41.210Z,32.04
2017-07-21T08:59:09.486Z,31.50
2017-07-21T09:01:37.105Z,31.44
2017-07-21T09:04:04.696Z,31.50
2017-07-21T09:06:32.250Z,31.31
2017-07-21T09:08:59.908Z,31.28
2017-07-21T09:11:27.507Z,31.33
2017-07-21T09:13:55.109Z,31.67
2017-07-21T09:16:22.787Z,31.06
2017-07-21T09:18:50.354Z,31.03
2017-07-21T09:21:17.988Z,31.34
2017-07-21T09:23:45.670Z,31.62
2017-07-21T09:26:13.247Z,31.49
2017-07-21T09:28:40.855Z,31.21
2017-07-21T09:31:08.446Z,30.77
2017-07-21T09:33:36.983Z,30.66
2017-07-21T09:36:04.817Z,30.76
2017-07-21T09:38:32.471Z,30.79
2017-07-21T09:41:00.081Z,31.14
2017-07-21T09:43:29.201Z,31.24
2017-07-21T09:45:58.070Z,31.45
2017-07-21T09:48:26.373Z,31.05
2017-07-21T09:50:54.036Z,30.99
2017-07-21T09:53:22.506Z,31.19
2017-07-21T09:55:52.131Z,31.92
2017-07-21T09:58:20.048Z,32.25
2017-07-21T10:00:48.267Z,31.96
2017-07-21T10:03:15.847Z,31.13
2017-07-21T10:05:44.202Z,31.41
2017-07-21T10:08:12.811Z,31.89
2017-07-21T10:10:41.236Z,31.57
2017-07-21T10:13:08.853Z,31.13
2017-07-21T10:15:36.469Z,31.65
2017-07-21T10:18:04.031Z,31.49
2017-07-21T10:20:31.624Z,31.33
2017-07-21T10:22:59.334Z,31.39
2017-07-21T10:25:26.942Z,31.45
2017-07-21T10:27:55.540Z,31.39
2017-07-21T10:30:23.344Z,31.41
2017-07-21T10:32:51.321Z,31.43
2017-07-21T10:35:19.963Z,31.25
2017-07-21T10:37:47.597Z,30.78
2017-07-21T10:40:15.184Z,31.24
2017-07-21T10:42:42.757Z,31.08
2017-07-21T10:45:14.942Z,31.27
2017-07-21T10:47:42.520Z,31.19
2017-07-21T10:50:10.114Z,31.57
2017-07-21T10:52:37.724Z,31.66
2017-07-21T10:55:05.294Z,31.52
2017-07-21T10:57:32.875Z,31.38
2017-07-21T11:00:00.478Z,31.92
2017-07-21T11:02:28.919Z,32.01
2017-07-21T11:04:58.326Z,31.25
2017-07-21T11:07:28.079Z,31.07
2017-07-21T11:09:56.531Z,31.42
2017-07-21T11:12:25.910Z,31.58
2017-07-21T11:14:53.822Z,31.50
2017-07-21T11:17:22.291Z,31.80
2017-07-21T11:19:50.841Z,32.24
2017-07-21T11:22:18.456Z,32.20
2017-07-21T11:24:47.549Z,31.78
2017-07-21T11:27:16.404Z,32.07
2017-07-21T11:29:45.805Z,31.97
2017-07-21T11:32:13.615Z,32.13
2017-07-21T11:34:41.753Z,32.46
2017-07-21T11:37:11.394Z,32.62
2017-07-21T11:39:39.008Z,32.58
2017-07-21T11:42:06.676Z,33.05
2017-07-21T11:44:34.482Z,33.13
2017-07-21T11:47:02.447Z,33.34
2017-07-21T11:49:30.049Z,33.24
2017-07-21T11:51:58.067Z,33.43
2017-07-21T11:54:25.694Z,33.38
2017-07-21T11:56:53.280Z,33.14
2017-07-21T11:59:20.890Z,33.43
2017-07-21T12:01:48.479Z,33.01
2017-07-21T12:04:17.872Z,32.28
2017-07-21T12:06:45.450Z,31.87
2017-07-21T12:09:13.066Z,31.91
2017-07-21T12:11:40.668Z,31.81
2017-07-21T12:14:08.288Z,31.70
2017-07-21T12:16:35.908Z,31.91
2017-07-21T12:19:03.496Z,32.29
2017-07-21T12:21:31.117Z,32.48
2017-07-21T12:23:58.802Z,32.02
2017-07-21T12:26:26.388Z,32.20
2017-07-21T12:28:53.992Z,32.06
2017-07-21T12:31:21.662Z,31.76
2017-07-21T12:33:49.253Z,31.45
2017-07-21T12:36:17.710Z,31.32
2017-07-21T12:38:45.344Z,31.53
2017-07-21T12:41:12.951Z,31.75
2017-07-21T12:43:40.631Z,32.00
2017-07-21T12:46:08.311Z,31.60
2017-07-21T12:48:35.919Z,31.76
2017-07-21T12:51:03.491Z,31.62
2017-07-21T12:53:31.198Z,31.67
2017-07-21T12:55:58.749Z,31.76
2017-07-21T12:58:26.341Z,31.56
2017-07-21T13:00:54.609Z,31.76
2017-07-21T13:03:23.035Z,31.93
2017-07-21T13:05:51.669Z,31.76
2017-07-21T13:08:19.412Z,32.26
2017-07-21T13:10:46.999Z,32.58
2017-07-21T13:13:14.555Z,32.50
2017-07-21T13:15:43.641Z,32.26
2017-07-21T13:18:12.141Z,32.17
2017-07-21T13:20:40.087Z,32.07
2017-07-21T13:23:07.717Z,31.87
2017-07-21T13:25:36.225Z,31.53
2017-07-21T13:28:03.755Z,31.27
2017-07-21T13:30:32.632Z,31.48
2017-07-21T13:33:01.230Z,31.82
2017-07-21T13:35:29.025Z,31.85
2017-07-21T13:37:57.218Z,31.35
2017-07-21T13:40:25.620Z,31.68
2017-07-21T13:42:54.148Z,31.94
2017-07-21T13:45:22.161Z,32.13
2017-07-21T13:47:50.334Z,31.99
2017-07-21T13:50:18.796Z,31.79
2017-07-21T13:52:46.421Z,31.57
2017-07-21T13:55:15.583Z,31.53
2017-07-21T13:57:44.002Z,31.61
2017-07-21T14:00:13.056Z,31.70
2017-07-21T14:02:40.909Z,31.57
2017-07-21T14:05:09.545Z,31.25
2017-07-21T14:07:37.874Z,31.28
2017-07-21T14:10:06.086Z,31.19
2017-07-21T14:12:34.957Z,30.90
2017-07-21T14:15:02.535Z,31.11
2017-07-21T14:17:30.824Z,31.07
2017-07-21T14:19:59.306Z,30.84
2017-07-21T14:22:26.909Z,30.96
2017-07-21T14:24:54.514Z,31.10
2017-07-21T14:27:22.858Z,31.34
2017-07-21T14:29:51.314Z,31.42
2017-07-21T14:32:19.206Z,31.41
2017-07-21T14:34:46.791Z,31.54
2017-07-21T14:37:15.840Z,31.28
2017-07-21T14:39:43.474Z,31.35
2017-07-21T14:42:12.215Z,31.42
2017-07-21T14:44:40.079Z,31.32
2017-07-21T14:47:09.271Z,31.42
2017-07-21T14:49:38.482Z,31.47
2017-07-21T14:52:07.096Z,31.43
2017-07-21T14:54:34.777Z,31.58
2017-07-21T14:57:04.076Z,31.57
2017-07-21T14:59:31.662Z,31.56
2017-07-21T15:02:00.190Z,31.54
2017-07-21T15:04:29.295Z,31.37
2017-07-21T15:06:57.981Z,31.51
2017-07-21T15:09:26.021Z,31.44
2017-07-21T15:11:53.890Z,31.34
2017-07-21T15:14:21.978Z,31.38
2017-07-21T15:16:51.641Z,31.26
2017-07-21T15:19:19.841Z,31.20
2017-07-21T15:21:49.825Z,31.28
2017-07-21T15:24:17.835Z,31.26
2017-07-21T15:26:45.450Z,31.16
2017-07-21T15:29:14.830Z,31.25
2017-07-21T15:31:44.493Z,31.20
2017-07-21T15:34:12.845Z,31.08
2017-07-21T15:36:40.875Z,31.12
2017-07-21T15:39:08.482Z,31.24
2017-07-21T15:41:36.950Z,31.28
2017-07-21T15:44:05.383Z,31.12
2017-07-21T15:46:33.758Z,31.14
2017-07-21T15:49:01.592Z,31.22
2017-07-21T15:51:29.886Z,31.19
2017-07-21T15:53:57.499Z,31.05
2017-07-21T15:56:25.175Z,30.81
2017-07-21T15:58:52.791Z,30.84
2017-07-21T16:01:20.856Z,30.76
2017-07-21T16:03:49.434Z,30.89
2017-07-21T16:06:18.563Z,30.90
2017-07-21T16:08:46.203Z,30.85
2017-07-21T16:11:13.778Z,30.77
2017-07-21T16:13:42.124Z,30.80
2017-07-21T16:16:10.802Z,30.78
2017-07-21T16:18:38.419Z,30.71
2017-07-21T16:21:06.022Z,30.61
2017-07-21T16:23:33.671Z,30.72
2017-07-21T16:26:01.267Z,30.67
2017-07-21T16:28:28.821Z,30.60
2017-07-21T16:30:56.426Z,30.64
2017-07-21T16:33:24.071Z,30.55
2017-07-21T16:35:51.638Z,30.35
2017-07-21T16:38:19.323Z,30.28
2017-07-21T16:40:47.563Z,30.23
2017-07-21T16:43:15.164Z,30.13
2017-07-21T16:45:42.779Z,30.04
2017-07-21T16:48:10.379Z,30.02
2017-07-21T16:50:37.999Z,29.98
2017-07-21T16:53:05.643Z,29.93
2017-07-21T16:55:33.230Z,29.83
2017-07-21T16:58:00.875Z,29.77
2017-07-21T17:00:29.509Z,29.81
2017-07-21T17:02:59.610Z,29.71
2017-07-21T17:05:28.429Z,29.59
2017-07-21T17:07:56.688Z,29.50
2017-07-21T17:10:26.686Z,29.46
2017-07-21T17:12:54.534Z,29.33
2017-07-21T17:15:22.343Z,29.34
2017-07-21T17:18:11.147Z,28.88
2017-07-21T17:20:39.554Z,29.25
2017-07-21T17:23:10.120Z,29.09
2017-07-21T17:25:38.386Z,29.10
2017-07-21T17:28:11.568Z,29.00
2017-07-21T17:30:40.458Z,28.94
2017-07-21T17:33:08.863Z,28.94
2017-07-21T17:38:28.300Z,28.69
2017-07-21T17:40:59.488Z,28.69
2017-07-21T17:43:31.440Z,28.60
2017-07-21T17:45:59.087Z,28.59
2017-07-21T17:48:38.157Z,28.49
2017-07-21T17:51:05.797Z,28.40
2017-07-21T17:53:33.922Z,28.28
2017-07-21T17:56:13.233Z,28.24
2017-07-21T17:58:40.867Z,28.24
2017-07-21T18:01:08.475Z,28.15
2017-07-21T18:03:36.160Z,28.00
2017-07-21T18:06:03.755Z,27.94
2017-07-21T18:08:31.382Z,27.90
2017-07-21T18:10:59.017Z,27.84
2017-07-21T18:13:26.704Z,27.80
2017-07-21T18:15:54.353Z,27.83
2017-07-21T18:18:21.943Z,27.83
2017-07-21T18:20:49.763Z,27.76
2017-07-21T18:23:17.487Z,27.66
2017-07-21T18:25:45.142Z,27.73
2017-07-21T18:28:12.790Z,27.63
2017-07-21T18:30:40.475Z,27.62
2017-07-21T18:33:08.104Z,27.58
2017-07-21T18:35:35.740Z,27.57
2017-07-21T18:38:03.348Z,27.54
2017-07-21T18:40:31.595Z,27.58
2017-07-21T18:42:59.198Z,27.54
2017-07-21T18:45:28.092Z,27.51
2017-07-21T18:47:55.788Z,27.55
2017-07-21T18:50:23.439Z,27.60
2017-07-21T18:52:51.109Z,27.64
2017-07-21T18:55:18.918Z,27.58
2017-07-21T18:57:47.715Z,27.62
2017-07-21T19:00:15.427Z,27.62
2017-07-21T19:02:43.230Z,27.52
2017-07-21T19:05:11.292Z,27.58
2017-07-21T19:07:38.963Z,27.55
2017-07-21T19:10:08.484Z,27.56
2017-07-21T19:12:36.906Z,27.50
2017-07-21T19:15:05.369Z,27.39
2017-07-21T19:17:33.151Z,27.27
2017-07-21T19:20:00.824Z,27.29
2017-07-21T19:22:29.528Z,27.20
2017-07-21T19:24:57.253Z,26.96
2017-07-21T19:27:24.890Z,26.81
2017-07-21T19:29:52.646Z,26.81
2017-07-21T19:32:20.359Z,26.72
2017-07-21T19:34:48.930Z,26.64
2017-07-21T19:37:18.114Z,26.51
2017-07-21T19:39:45.914Z,26.23
2017-07-21T19:42:13.618Z,26.28
2017-07-21T19:44:41.338Z,26.01
2017-07-21T19:47:09.578Z,25.82
2017-07-21T19:49:37.190Z,25.82
2017-07-21T19:52:05.663Z,25.72
2017-07-21T19:54:34.859Z,25.66
2017-07-21T19:57:02.580Z,25.50
2017-07-21T19:59:30.269Z,25.42
2017-07-21T20:01:58.166Z,25.52
2017-07-21T20:04:25.810Z,25.64
2017-07-21T20:06:53.550Z,25.68
2017-07-21T20:09:23.144Z,25.69
2017-07-21T20:11:50.860Z,25.77
2017-07-21T20:14:18.525Z,25.78
2017-07-21T20:16:46.246Z,25.74
2017-07-21T20:19:13.941Z,25.71
2017-07-21T20:21:42.770Z,25.80
2017-07-21T20:24:10.587Z,25.82
2017-07-21T20:26:38.237Z,25.71
2017-07-21T20:29:05.915Z,25.63
2017-07-21T20:31:33.655Z,25.66
2017-07-21T20:34:02.088Z,25.73
2017-07-21T20:36:29.872Z,25.68
2017-07-21T20:38:57.524Z,25.44
2017-07-21T20:41:25.214Z,25.31
2017-07-21T20:43:52.835Z,25.15
2017-07-21T20:46:20.561Z,25.08
2017-07-21T20:48:48.181Z,25.05
2017-07-21T20:51:15.977Z,24.97
2017-07-21T20:53:43.747Z,24.92
2017-07-21T20:56:12.647Z,24.82
2017-07-21T20:58:40.377Z,24.80
2017-07-21T21:01:08.021Z,24.80
2017-07-21T21:03:35.776Z,24.88
2017-07-21T21:06:03.517Z,24.85
2017-07-21T21:08:32.201Z,24.85
2017-07-21T21:11:26.434Z,24.88
2017-07-21T21:13:54.067Z,24.95
2017-07-21T21:16:22.040Z,24.90
2017-07-21T21:18:49.727Z,24.77
2017-07-21T21:21:18.382Z,24.79
2017-07-21T21:23:46.088Z,24.67
2017-07-21T21:26:13.973Z,24.62
2017-07-21T21:31:49.000Z,24.49
2017-07-21T21:34:16.680Z,24.38
2017-07-21T21:36:45.796Z,24.39
2017-07-21T21:39:13.469Z,24.40
2017-07-21T21:41:41.176Z,24.37
2017-07-21T21:44:08.977Z,24.38
2017-07-21T21:46:36.615Z,24.50
2017-07-21T21:49:04.262Z,24.56
2017-07-21T21:51:31.905Z,24.63
2017-07-21T21:53:59.565Z,24.59
2017-07-21T21:56:27.236Z,24.62
2017-07-21T21:58:54.946Z,24.43
2017-07-21T22:01:22.619Z,24.48
2017-07-21T22:03:50.361Z,24.44
2017-07-21T22:06:18.610Z,24.30
2017-07-21T22:08:46.357Z,24.32
2017-07-21T22:11:14.067Z,24.31
2017-07-21T22:13:41.885Z,24.29
2017-07-21T22:16:11.738Z,23.96
2017-07-21T22:18:49.593Z,23.84
2017-07-21T22:21:17.331Z,23.76
2017-07-21T22:23:45.059Z,23.58
2017-07-21T22:26:13.088Z,23.32
2017-07-21T22:28:40.707Z,23.19
2017-07-21T22:31:09.376Z,23.11
2017-07-21T22:33:37.031Z,22.98
2017-07-21T22:36:05.071Z,23.07
2017-07-21T22:38:32.833Z,22.98
2017-07-21T22:41:01.076Z,22.88
2017-07-21T22:43:28.731Z,22.99
2017-07-21T22:45:56.497Z,23.06
2017-07-21T22:48:24.450Z,23.17
2017-07-21T22:50:52.637Z,23.16
2017-07-21T22:53:20.304Z,23.00
2017-07-21T22:55:47.936Z,23.03
2017-07-21T22:58:15.578Z,23.00
2017-07-21T23:00:43.355Z,23.14
2017-07-21T23:03:11.040Z,22.96
2017-07-21T23:05:39.191Z,22.83
2017-07-21T23:08:06.828Z,22.92
2017-07-21T23:10:34.492Z,22.70
2017-07-21T23:13:02.106Z,22.58
2017-07-21T23:15:29.729Z,22.91
2017-07-21T23:17:57.455Z,23.07
2017-07-21T23:21:02.737Z,23.27
2017-07-21T23:26:58.975Z,23.05
2017-07-21T23:32:49.426Z,22.52
2017-07-21T23:38:46.923Z,22.67
2017-07-21T23:47:55.312Z,23.11
2017-07-21T23:50:23.607Z,23.18
2017-07-21T23:58:57.144Z,22.47
